CLASSIFICA

INFERNO SNOW RUN

PRATO NEVOSO (CN) 19/01/2019

DIVISIONI:
COMPETITIVA     NON COMPETITIVA     CLASSIFICA:   ASSOLUTA    F     M    
CATEGORIE:   TUTTE    |   13-17(M)   |   18-24(F)   |   18-24(M)   |   25-29(F)   |   25-29(M)   |   30-34(F)   |   30-34(M)   |   35-39(F)   |   35-39(M)   |   40-44(F)   |   40-44(M)   |   45-49(F)   |   45-49(M)   |   50-55(M)   |   55-60(F)   |   55-60(M)   |   60-99(M)  
ALTRO: Classifica Team 
FILTRO:
  Atleta      Team        Pulisci       Atleti classificati COMPETITIVA: 273  

Cliccare sulle colonne per cambiare ordinamento Pagina:   | 1 | | 2 | | 3 | | 4 | | 5 | | 6 |
Azioni Pos. M/F Cat. P.Cat. Pett Naz Atleta Squadra Tempo Distacco in tempo Distacco in metri Min/Km braccialetti regione
1118-24(M)1285MORI RICCARDOINFERNO00:37:27 00:00:00 0 00:05:21 3 -
2230-34(M)1253MUSSO FULVIOFCT CHIERI ASD00:38:10 00:00:43 131 00:05:27 3 R
3325-29(M)1264KADIJA RIGERSINFERNO00:39:54 00:02:27 429 00:05:42 3 -
4425-29(M)2262DEL PIANO ANDREAINFERNO00:40:30 00:03:03 527 00:05:47 3 -
5530-34(M)2316BERTOLASI MARCOWHITE DONKEYS00:40:45 00:03:18 566 00:05:49 3 -
6625-29(M)3417PRIVINO STEFANOREA PALUS RACE00:41:19 00:03:52 655 00:05:54 3 -
7735-39(M)1277DI GAETANO GIOVANNIOCR HEROES00:41:24 00:03:57 667 00:05:55 3 R
8825-29(M)4411SCHINA LORISTEAM WRI00:41:37 00:04:10 700 00:05:57 3 R
9935-39(M)2247BONAITA ALEXHH36500:44:06 00:06:39 1.055 00:06:18 3 -
101030-34(M)3210TRIBAN MATTEOTEAM WRI00:44:29 00:07:02 1.106 00:06:21 3 R
111130-34(M)4248FRANCESCHI MATTIAINVICTUS TEAM - SPARTAN SGX00:44:43 00:07:16 1.137 00:06:23 3 R
121235-39(M)3208PIGATO MARCOINVICTUS TEAM - SPARTAN SGX00:48:06 00:10:39 1.549 00:06:52 3 R
131330-34(M)5206GIACONE MASSIMOTEAM WRI00:48:07 00:10:40 1.551 00:06:52 3 R
141435-39(M)4186FASSINO MARCOINFERNO00:48:32 00:11:05 1.598 00:06:56 3 -
151535-39(M)5243MARCHETTO ROBERTOFCT CHIERI ASD00:49:15 00:11:48 1.677 00:07:02 3 R
161618-24(M)2389SPACCAZOCCHI JACOPO BRUNOKNIGHT RACE00:49:32 00:12:05 1.707 00:07:05 3 R
171740-44(M)1242CAGLIOTI VINCENZOINDIVIDUALE00:49:50 00:12:23 1.739 00:07:07 3 R
181835-39(M)6209CERRATO ILARIOINDIVIDUALE00:50:02 00:12:35 1.760 00:07:09 3 -
191930-34(M)6244MANTOVANI DANIELEOCR HUNTERS00:51:31 00:14:04 1.911 00:07:22 3 -
202045-49(M)1367SIRGHI DORINANIS MUDDERS00:51:41 00:14:14 1.927 00:07:23 3 -
212130-34(M)7268CRETIER MANUELINDIVIDUALE00:51:58 00:14:31 1.955 00:07:25 3 R
22140-44(F)1114ISABELLO MONICATEAM WRI00:52:55 00:15:28 2.045 00:07:34 3 R
232218-24(M)3227POCATERRA SIMONEARENA TEAM TAURUS00:53:25 00:15:58 2.092 00:07:38 3 -
242325-29(M)5412DE NITTIS ANDREATEAM WRI00:53:31 00:16:04 2.101 00:07:39 3 R
252418-24(M)4314TRALDI DAVIDEWHITE DONKEYS00:53:42 00:16:15 2.118 00:07:40 3 -
262545-49(M)2236MONTANARI FRANCESCOOCR HUNTERS00:54:10 00:16:43 2.160 00:07:44 3 -
272630-34(M)8265DE MATTEO MARCOINDIVIDUALE00:54:11 00:16:44 2.161 00:07:44 3 R
282745-49(M)3207CECCOTTI DANIELEX-MEN TEAM ITALIA00:54:44 00:17:17 2.210 00:07:49 3 -
292825-29(M)6399SIRI SIMONEINDIVIDUALE00:54:53 00:17:26 2.223 00:07:50 3 -
302930-34(M)9199PIOMBONI NICOLÒINDIVIDUALE00:55:13 00:17:46 2.252 00:07:53 3 -
313025-29(M)7311GIANNETTONI LORENZOINDIVIDUALE00:55:25 00:17:58 2.269 00:07:55 3 -
323150-55(M)1333MANCA BRUNODAS TEAM OCR00:55:30 00:18:03 2.276 00:07:56 3 R
333225-29(M)8334MARTORANA TOMMASOINDIVIDUALE00:55:32 00:18:05 2.279 00:07:56 3 -
343330-34(M)10336RIMONDI ALANINDIVIDUALE00:56:41 00:19:14 2.375 00:08:06 3 -
35225-29(F)1116ZENGA CAROLINFERNO00:56:57 00:19:30 2.396 00:08:08 3 R
363425-29(M)9335SINIGAGLIA KEVININDIVIDUALE00:57:10 00:19:43 2.414 00:08:10 3 -
373535-39(M)7271BIANCHI ETTOREINDIVIDUALE00:57:34 00:20:07 2.446 00:08:13 3 R
383640-44(M)2391TIBERI ANTONIOKNIGHT RACE00:57:57 00:20:30 2.476 00:08:17 3 -
393730-34(M)11315BELLODI ANDREAWHITE DONKEYS00:57:59 00:20:32 2.478 00:08:17 3 -
403845-49(M)4276DE ROSA DOMENICOARENA TEAM TAURUS00:58:11 00:20:44 2.494 00:08:19 3 -
413930-34(M)12263MUSSO ROBERTOINDIVIDUALE00:58:16 00:20:49 2.500 00:08:19 3 R
424030-34(M)13220PISANU STEFANO GIUSEPPEISMOLENTIS OCR00:58:41 00:21:14 2.532 00:08:23 3 -
434130-34(M)14357RODÀ FEDERICOOCR TEAM ITALY LWT00:58:45 00:21:18 2.537 00:08:24 3 -
444225-29(M)10304TAMBURLANI FILIPPOINDIVIDUALE00:59:22 00:21:55 2.584 00:08:29 3 -
454325-29(M)11402TOSI FRANCESCOINDIVIDUALE00:59:55 00:22:28 2.624 00:08:34 3 -
464435-39(M)8282RIVA ANDREAASPIS ASD01:00:23 00:22:56 2.658 00:08:38 3 -
474535-39(M)9251MIDURI MARCOI DIAVOLIA401:00:25 00:22:58 2.660 00:08:38 3 -
484645-49(M)5414PILOTTA ALESSANDROCELTIC TEAM01:00:31 00:23:04 2.668 00:08:39 3 -
494740-44(M)3308BORACCHIA MATTEOWHITE DONKEYS01:00:31 00:23:04 2.668 00:08:39 3 -
504845-49(M)6421CECCONI LUCIANOOCR HEROES01:00:36 00:23:09 2.674 00:08:39 3 -
514930-34(M)15269BELLETRUTTI ANDREAINDIVIDUALE01:00:38 00:23:11 2.676 00:08:40 3 R
525045-49(M)7324NAZHA ALITEAM WRI01:00:45 00:23:18 2.684 00:08:41 3 R
535130-34(M)16403BIMA LUCADAS TEAM OCR01:00:54 00:23:27 2.695 00:08:42 3 R
545230-34(M)17221VENCO FRANCESCOARENA TEAM TAURUS01:01:36 00:24:09 2.744 00:08:48 3 -
555318-24(M)5395AZIMONTI TOMMASOARENA TEAM TAURUS01:01:52 00:24:25 2.762 00:08:50 3 -
56330-34(F)1141HARTAN DIANA MARIAINFERNO01:01:53 00:24:26 2.763 00:08:50 3 -
575430-34(M)18198MENCHETTI DAVIDINDIVIDUALE01:02:08 00:24:41 2.780 00:08:53 3 -
585535-39(M)10397FALASCONI MICHELEKNIGHT RACE01:03:06 00:25:39 2.845 00:09:01 3 -
595625-29(M)12317BERTOLASI LUCAWHITE DONKEYS01:03:08 00:25:41 2.847 00:09:01 3 -
605730-34(M)19319GUERNIERI VALERIOWHITE DONKEYS01:03:19 00:25:52 2.859 00:09:03 3 -
615835-39(M)11368STOIAN ALINANIS MUDDERS01:03:30 00:26:03 2.871 00:09:04 3 -
625940-44(M)4318GALLI DARIOWHITE DONKEYS01:03:33 00:26:06 2.874 00:09:05 3 -
636030-34(M)20341ZANONI MATTEOWHITE DONKEYS01:03:48 00:26:21 2.891 00:09:07 3 -
646150-55(M)2328RAVIZZA MARCOTEAM WRI01:03:57 00:26:30 2.900 00:09:08 3 -
656225-29(M)13295IACOVELLI DANIELECELTIC TEAM01:04:20 00:26:53 2.925 00:09:11 3 R
666340-44(M)5424VIERO PATRIZIOFORCE RUN01:04:23 00:26:56 2.928 00:09:12 3 -
676430-34(M)21245DOMENICHINI DAVIDEINDIVIDUALE01:04:25 00:26:58 2.930 00:09:12 3 -
686525-29(M)14195RAZZOLI JURIINDIVIDUALE01:05:02 00:27:35 2.968 00:09:17 3 -
696630-34(M)22321LINDIRI FABIO FRANCESCOWHITE DONKEYS01:05:10 00:27:43 2.977 00:09:19 3 -
706745-49(M)8301PIANGIAMORE IVANOOCR TEAM IMSA01:05:34 00:28:07 3.001 00:09:22 3 -
716825-29(M)15376BRACCAIOLI LORENZOWHITE DONKEYS01:05:36 00:28:09 3.003 00:09:22 3 -
726930-34(M)23223MARONGIU ANDREAISMOLENTIS OCR01:05:47 00:28:20 3.014 00:09:24 3 -
737030-34(M)24312ZELMAN FILIPPOWHITE DONKEYS01:05:56 00:28:29 3.024 00:09:25 3 -
747135-39(M)12307DE MARCHI ALESSANDROBEAR BROTHERS GANG01:06:13 00:28:46 3.041 00:09:28 3 -
757230-34(M)25299COLIZZI RENATOROMA X TRAINING01:06:16 00:28:49 3.044 00:09:28 3 -
767325-29(M)16228MILAN MARCONINJA CAVE01:06:24 00:28:57 3.051 00:09:29 3 -
777425-29(M)17306SEGALA VALENTINOWHITE DONKEYS01:06:26 00:28:59 3.053 00:09:29 3 -
787540-44(M)6374CARAFFINI ATOSWHITE DONKEYS01:06:53 00:29:26 3.080 00:09:33 3 -
797630-34(M)26235FERRARESI FILIPPOINDIVIDUALE01:07:04 00:29:37 3.091 00:09:35 3 -
807735-39(M)13240ATZORI MORENOIS MOLENTIS OCR01:07:07 00:29:40 3.094 00:09:35 3 -
817840-44(M)7430D'ANGELO PAOLOTEAM CONTRACTORS01:07:22 00:29:55 3.108 00:09:37 3 -
827940-44(M)8229PERFETTI GINONINJA CAVE01:07:53 00:30:26 3.138 00:09:42 3 -
838025-29(M)18310PELUSI JACOPOINDIVIDUALE01:08:16 00:30:49 3.159 00:09:45 3 -
848125-29(M)19234BERTUCCO MATTEOINDIVIDUALE01:08:38 00:31:11 3.180 00:09:48 3 -
858240-44(M)9205REMONDINO MARCOOCR HEROES01:08:40 00:31:13 3.182 00:09:49 3 R
868330-34(M)27224SPIGA ALBERTOIS MOLENTIS OCR01:08:41 00:31:14 3.183 00:09:49 3 -
878445-49(M)9396FERRARI LORENZOINDIVIDUALE01:08:48 00:31:21 3.189 00:09:50 3 -
88435-39(F)1135ACQUADRO ELENATEAM WRI01:09:39 00:32:12 3.236 00:09:57 3 R
898513-17(M)1379PELLEREI FLAVIOTEAM WRI01:09:59 00:32:32 3.254 00:10:00 3 R
908645-49(M)10327FONTANA MAURIZIOWHITE DONKEYS01:10:17 00:32:50 3.270 00:10:02 3 -
918730-34(M)28196MANZINELLO LORENZO BINDIVIDUALE01:10:56 00:33:29 3.304 00:10:08 3 -
928840-44(M)10241TUMIATI LUCAI DIAVOLIA401:11:09 00:33:42 3.315 00:10:10 3 -
938940-44(M)11343TESSARIN ANDREA RICCARDOINDOMITVS TEAM01:11:16 00:33:49 3.321 00:10:11 3 -
949025-29(M)20202GHELARDI MIRKOINDIVIDUALE01:11:18 00:33:51 3.323 00:10:11 3 -
95540-44(F)2134FERRARI SABRINAINDIVIDUALE01:11:32 00:34:05 3.335 00:10:13 3 -
969130-34(M)29406GIOMMETTI FEDERICOINDIVIDUALE01:11:58 00:34:31 3.357 00:10:17 3 -
97635-39(F)2140BARDELLINI PAOLAINFERNO01:12:23 00:34:56 3.378 00:10:20 3 -
989230-34(M)30356FERRARESI MATTEOINDIVIDUALE01:12:30 00:35:03 3.384 00:10:21 3 -
999350-55(M)3273PAGLIUSO GIANPAOLOTEAM WRI01:12:41 00:35:14 3.393 00:10:23 3 R
1009425-29(M)21355MOLINAR STEFANOINDIVIDUALE01:13:38 00:36:11 3.439 00:10:31 3 -
1019525-29(M)22290MORETTO MARCOINDIVIDUALE01:13:43 00:36:16 3.443 00:10:32 3 R
1029630-34(M)31280FORLANO MARCELLOINDIVIDUALE01:13:56 00:36:29 3.454 00:10:34 3 -
1039740-44(M)12420GIANELLI GABRIELEINDIVIDUALE01:15:00 00:37:33 3.504 00:10:43 3 -
1049830-34(M)32322MOLTENI OMARBIRRAETOPE01:15:01 00:37:34 3.505 00:10:43 3 -
105735-39(F)3122DAMBRUOSO FRANCESCAWHITE DONKEYS01:16:08 00:38:41 3.556 00:10:53 3 -
1069930-34(M)33422BRUNI ANDREAINDIVIDUALE01:16:09 00:38:42 3.557 00:10:53 3 -
10710040-44(M)13348MARANGON SIMONEINDOMITVS TEAM01:16:13 00:38:46 3.560 00:10:53 3 R
10810130-34(M)34413GHIANI SIMONEIS MOLENTIS OCR01:16:30 00:39:03 3.573 00:10:56 3 -
10910225-29(M)23423NEGRI CHRISTOPHERTEAM MARGUAREIS01:16:49 00:39:22 3.587 00:10:58 3 R
110825-29(F)2184TARANTINO SELENEANIS MUDDERS01:16:50 00:39:23 3.588 00:10:59 3 -
11110330-34(M)35358GIANNINI DIEGOOCR TEAM ITALY LWT01:17:01 00:39:34 3.596 00:11:00 3 -
112925-29(F)3125MANGANO VALENTINAINDIVIDUALE01:17:19 00:39:52 3.609 00:11:03 3 -
11310430-34(M)36300BOERCI LUCAENERGY MEDIGLIA GYM TEAM01:17:19 00:39:52 3.609 00:11:03 3 -
11410545-49(M)11215PARODI ANDREAINVICTUS TEAM - SPARTAN SGX01:17:29 00:40:02 3.616 00:11:04 3 R
1151030-34(F)2130LOVATO DANIELAWHITE DONKEYS01:17:33 00:40:06 3.619 00:11:05 3 -
11610635-39(M)14320BONELLI DIEGO FRANCESCOWHITE DONKEYS01:17:34 00:40:07 3.620 00:11:05 3 -
11710735-39(M)15337TONELLI BRUNOINDIVIDUALE01:17:42 00:40:15 3.626 00:11:06 3 -
11810825-29(M)24225MELIS GIACOMOIS MOLENTIS OCR01:17:42 00:40:15 3.626 00:11:06 3 -
11910930-34(M)37238SACCILOTTO RICCARDOINDIVIDUALE01:17:46 00:40:19 3.629 00:11:07 3 R
12011045-49(M)12293BACCICHET SIMONECELTIC TEAM01:17:49 00:40:22 3.631 00:11:07 3 R
12111135-39(M)16194GHIRONI FEDERICOINVICTUS TEAM - SPARTAN SGX01:18:28 00:41:01 3.659 00:11:13 3 R
12211240-44(M)14416MASALA ENRICOANIMALS OCR01:18:29 00:41:02 3.659 00:11:13 3 -
12311360-99(M)1292FRASCÀ LUCIANOWHITE DONKEYS01:19:12 00:41:45 3.690 00:11:19 3 -
12411425-29(M)25340PORFIDO ROBERTOINDIVIDUALE01:19:33 00:42:06 3.704 00:11:22 3 -
1251135-39(F)4142FANTONI FAVINI BEATRICEINDIVIDUALE01:19:59 00:42:32 3.722 00:11:26 3 -
12611530-34(M)38330FERRETTI VINCENZOINDIVIDUALE01:20:32 00:43:05 3.744 00:11:30 3 -
12711630-34(M)39233BOTTINO SIMONEINDIVIDUALE01:20:52 00:43:25 3.758 00:11:33 3 -
12811725-29(M)26192GALANTINI FILIPPOCANOTTIERI COMUNALI01:20:54 00:43:27 3.759 00:11:33 3 -
12911840-44(M)15281RADUAZZO CRISTIANASPIS ASD01:21:15 00:43:48 3.773 00:11:36 3 -
13011930-34(M)40230CONCAS LUCAIS MOLENTIS OCR01:21:37 00:44:10 3.788 00:11:40 3 -
13112030-34(M)41183RESTICCIA NICCOLO'BEAR BROTHERS GANG01:21:55 00:44:28 3.799 00:11:42 3 -
1321225-29(F)4115OSSOLA ELISAARENA TEAM TAURUS01:23:08 00:45:41 3.846 00:11:53 3 -
13312145-49(M)13405ANFOSSI DAVIDEINDIVIDUALE01:23:58 00:46:31 3.877 00:12:00 3 -
13412245-49(M)14289TABORRI GIUSEPPEINVICTUS TEAM - SPARTAN SGX01:25:04 00:47:37 3.918 00:12:09 3 R
13512345-49(M)15298GEMELLI ALESSANDROENERGY MEDIGLIA GYM TEAM01:25:49 00:48:22 3.945 00:12:16 3 -
13612425-29(M)27359CANGINI DAVIDEOCR TEAM ITALY LWT01:26:01 00:48:34 3.952 00:12:17 3 -
13712535-39(M)17365BOSCARINO DAMIANOINDIVIDUALE01:26:06 00:48:39 3.955 00:12:18 3 -
13812640-44(M)16354RONCARI DAMIANOINDIVIDUALE01:27:36 00:50:09 4.007 00:12:31 3 -
13912745-49(M)16219PENNISI DARIOASD SIRACUSA SPARTAN CREW01:28:39 00:51:12 4.042 00:12:40 3 -
1401330-34(F)3118CHARRUAZ NICOLECELTIC TEAM01:30:17 00:52:50 4.096 00:12:54 3 R
14112825-29(M)28362PIACENTI JODIOCR TEAM ITALY LWT01:31:35 00:54:08 4.137 00:13:05 3 -
1421435-39(F)5138VONA MARIA ROSAINDIVIDUALE01:32:07 00:54:40 4.154 00:13:10 3 -
14312945-49(M)17431BENATTI MARCOINDIVIDUALE01:32:54 00:55:27 4.178 00:13:16 3 -
14413030-34(M)42331CIVA LORENZOWHITE DONKEYS01:33:26 00:55:59 4.194 00:13:21 3 -
14513145-49(M)18296ZAMPETTI DAVIDEINDIVIDUALE01:33:44 00:56:17 4.203 00:13:23 3 -
1461530-34(F)4101PIERALLI GIULIAINDIVIDUALE01:33:54 00:56:27 4.208 00:13:25 3 -
14713230-34(M)43385ZAPPA STEFANOWHITE DONKEYS01:34:27 00:57:00 4.224 00:13:30 3 R
1481630-34(F)5132CAPPAI ELEONORAWHITE DONKEYS01:34:36 00:57:09 4.228 00:13:31 3 -
1491725-29(F)5136ROMITO MARTINAANIMALS OCR01:35:19 00:57:52 4.249 00:13:37 3 -
1501830-34(F)6113CORRADINO ILARIATEAM WRI01:38:23 01:00:56 4.335 00:14:03 3 -
15113340-44(M)17383MORGANTI GIACOMOX-MEN TEAM ITALIA01:46:17 01:08:50 4.533 00:15:11 3 -
15213445-49(M)19408MICCOLI ALANINDIVIDUALE01:46:19 01:08:52 4.534 00:15:11 3 -
1531925-29(F)6108UCCHEDDU GIULIAIS MOLENTIS OCR01:59:40 01:22:13 4.809 00:17:06 3 -
15413545-49(M)20378PELLEREI LUCATEAM WRI00:39:35 00:02:08 377 00:05:39 2 R
15513645-49(M)21261PAPIRO LUIGITEAM WRI00:44:29 00:07:02 1.106 00:06:21 2 R
15613730-34(M)44260CAZZAVACCA ALESSANDROTEAM WRI00:44:47 00:07:20 1.146 00:06:24 2 -
15713830-34(M)45266CALZAVARA MATTEOINDIVIDUALE00:51:28 00:14:01 1.906 00:07:21 2 R
15813930-34(M)46254PASQUALI SIMONEINVICTUS TEAM - SPARTAN SGX00:52:50 00:15:23 2.038 00:07:33 2 R
15914030-34(M)47329TURI FEDERICOINVICTUS CROSS TRAINING CUNEO00:53:20 00:15:53 2.084 00:07:37 2 R
16014135-39(M)18326ESU DAVIDEINVICTUS CROSS TRAINING CUNEO00:56:53 00:19:26 2.391 00:08:08 2 R
16114230-34(M)48250ORRU' SIMONEFCT CHIERI ASD00:57:02 00:19:35 2.403 00:08:09 2 R
16214335-39(M)19407ASTEGGIANO FRANCOINDIVIDUALE00:59:56 00:22:29 2.625 00:08:34 2 R
16314425-29(M)29409MICELI GIOVANNIINDIVIDUALE01:00:53 00:23:26 2.694 00:08:42 2 R
16414535-39(M)20388DINI MICHELEKNIGHT RACE01:01:03 00:23:36 2.705 00:08:43 2 -
16514618-24(M)6377SCOZZI MATTEOINDIVIDUALE01:03:27 00:26:00 2.868 00:09:04 2 -
16614725-29(M)30252BECATTINI MATTEOINDIVIDUALE01:04:01 00:26:34 2.904 00:09:09 2 -
16714835-39(M)21415VIOLA MATTEOOCR TEAM ITALY LWT01:05:07 00:27:40 2.974 00:09:18 2 -
16814940-44(M)18428AVERTA FABIOCANE SCIOLTO PER LA GLORIA01:05:20 00:27:53 2.987 00:09:20 2 -
16915035-39(M)22217PISTOL LUCAINDIVIDUALE01:05:42 00:28:15 3.009 00:09:23 2 R
17015125-29(M)31239RATTALINO FEDERICOINDIVIDUALE01:06:29 00:29:02 3.056 00:09:30 2 R
17115245-49(M)22390SCIRISCIOLI NICOLAKNIGHT RACE01:07:59 00:30:32 3.143 00:09:43 2 -
17215340-44(M)19325BATTISTI ANDREAINDIVIDUALE01:08:33 00:31:06 3.175 00:09:48 2 R
17315430-34(M)49401RINAUDI ALESSIOINDIVIDUALE01:09:47 00:32:20 3.243 00:09:58 2 R
17415530-34(M)50283PAVONE MARCOINDIVIDUALE01:09:51 00:32:24 3.246 00:09:59 2 R
17515630-34(M)51287SOLARI GIANLUCAINDIVIDUALE01:10:25 00:32:58 3.277 00:10:04 2 -
17615725-29(M)32370GARELLO GIORGIOINDIVIDUALE01:11:15 00:33:48 3.320 00:10:11 2 -
17715830-34(M)52222DEMAGISTRI ANDREAINDIVIDUALE01:11:28 00:34:01 3.331 00:10:13 2 -
17815925-29(M)33255DALFINI RICCARDOINDIVIDUALE01:14:13 00:36:46 3.467 00:10:36 2 -
17916045-49(M)23381VIVALDI MASSIMOINDIVIDUALE01:16:42 00:39:15 3.582 00:10:57 2 -
18016145-49(M)24392PORTO VALENTINOROMA OCR01:17:52 00:40:25 3.633 00:11:07 2 -
18116218-24(M)7237MARINO MARIOASIA WARRIORS TEAM01:19:24 00:41:57 3.698 00:11:21 2 -
18216335-39(M)23232SARASINI DAVIDEINDIVIDUALE01:19:28 00:42:01 3.701 00:11:21 2 -
18316440-44(M)20201ROBLES MORALES RODRIGOINDIVIDUALE01:19:47 00:42:20 3.714 00:11:24 2 R
1842018-24(F)1256COLABIANCHI ELENATEAM CONTRACTORS01:20:28 00:43:01 3.742 00:11:30 2 -
18516545-49(M)25187ORLANDO MASSIMOINDIVIDUALE01:20:49 00:43:22 3.756 00:11:33 2 -
18616625-29(M)34386VOGHERA DAVIDEINDIVIDUALE01:21:24 00:43:57 3.779 00:11:38 2 R
18716740-44(M)21425BERTUOLO MIRKOINDIVIDUALE01:21:38 00:44:11 3.788 00:11:40 2 -
18816855-60(M)1371SATTANINO CARLOBEAR BROTHERS GANG01:21:40 00:44:13 3.789 00:11:40 2 -
18916930-34(M)53398BOMMARITO GIANLUCAINDIVIDUALE01:21:51 00:44:24 3.797 00:11:42 2 -
19017045-49(M)26249GARBIN FABIOFCT CHIERI ASD01:22:54 00:45:27 3.837 00:11:51 2 R
19117130-34(M)54303LAI ALESSIOOCR TEAM IMSA01:23:35 00:46:08 3.863 00:11:56 2 -
19217235-39(M)24302BADEA MARIUSENERGY MEDIGLIA GYM TEAM01:23:41 00:46:14 3.867 00:11:57 2 -
19317330-34(M)55404FROSINI MATTIAINDIVIDUALE01:23:42 00:46:15 3.867 00:11:57 2 -
1942118-24(F)2119GUALDI ALICEINVICTUS TEAM - SPARTAN SGX01:23:53 00:46:26 3.874 00:11:59 2 R
19517440-44(M)22351PIERRO ALESSANDROINDIVIDUALE01:23:56 00:46:29 3.876 00:11:59 2 R
19617535-39(M)25432CARAMANICO ALESSANDROSNCZT01:24:37 00:47:10 3.901 00:12:05 2 -
19717630-34(M)56332BROCARDO LUCAINDIVIDUALE01:24:41 00:47:14 3.904 00:12:06 2 -
19817725-29(M)35350GOLDANI ANDREAINDIVIDUALE01:25:09 00:47:42 3.921 00:12:10 2 R
19917818-24(M)8338ESPOSITO MATTIAINDIVIDUALE01:25:55 00:48:28 3.948 00:12:16 2 -
20017940-44(M)23279AIRÒ NICOLAASPIS ASD01:28:37 00:51:10 4.041 00:12:40 2 R
20118035-39(M)26226PITZALIS ALESSANDROIS MOLENTIS OCR01:29:19 00:51:52 4.064 00:12:46 2 -
20218125-29(M)36353TONELLO EDOARDOINDIVIDUALE01:29:32 00:52:05 4.072 00:12:47 2 R
20318230-34(M)57366MUDANÒ ALESSIOASD SIRACUSA SPARTAN CREW01:31:05 00:53:38 4.121 00:13:01 2 -
2042230-34(F)7104ADIGE VALERIAINDIVIDUALE01:31:48 00:54:21 4.144 00:13:07 2 R
20518325-29(M)37246TESTA ANDREAINDIVIDUALE01:31:57 00:54:30 4.148 00:13:08 2 R
20618435-39(M)27214MASELLI LUCAINDIVIDUALE01:33:06 00:55:39 4.184 00:13:18 2 -
2072325-29(F)7103SABENA FRANCESCAINDIVIDUALE01:35:51 00:58:24 4.264 00:13:42 2 -
20818530-34(M)58373RONCHI LEANDROINDIVIDUALE01:36:22 00:58:55 4.279 00:13:46 2 -
2092418-24(F)3117PANDINI ELISA ELENAINVICTUS TEAM - SPARTAN SGX01:40:43 01:03:16 4.397 00:14:23 2 -
21018645-49(M)27360INTINI MARCOOCR HUNTERS01:41:39 01:04:12 4.421 00:14:31 2 -
21118740-44(M)24380CAPRIOLI LUIGINOINDIVIDUALE01:44:46 01:07:19 4.497 00:14:58 2 -
21218845-49(M)28212MAINARDI FABIOINDIVIDUALE01:45:11 01:07:44 4.507 00:15:02 2 -
2132540-44(F)3111RAGGI CLAUDIAINDIVIDUALE01:55:02 01:17:35 4.721 00:16:26 2 -
2142630-34(F)8107CIMINIELLO MARTAIS MOLENTIS OCR02:04:47 01:27:20 4.899 00:17:50 2 -
2152730-34(F)9106MARRAS CINZIAIS MOLENTIS OCR02:15:19 01:37:52 5.062 00:19:20 2 -
21618945-49(M)29339GIRAUDO FEDERICODAS TEAM OCR02:34:01 01:56:34 5.297 00:22:00 2 R
21719025-29(M)38393RIZZI CRISTIANOINVICTUS TEAM - SPARTAN SGX00:48:07 00:10:40 1.551 00:06:52 1 R
21819140-44(M)25363CASTELLI ANDREAATLETICA RIVELLINO PIOMBINO00:52:27 00:15:00 2.001 00:07:30 1 -
21919245-49(M)30361CECCONI MAURIZIOATLETICA RIVELLINO PIOMBINO00:55:30 00:18:03 2.276 00:07:56 1 -
22019335-39(M)28297ANGUSTI RUGGEROINDIVIDUALE01:00:11 00:22:44 2.644 00:08:36 1 -
22119418-24(M)9258DI TANO EMANUELEINDIVIDUALE01:02:27 00:25:00 2.802 00:08:55 1 R
22219525-29(M)39257MARETTO MATTEOINDIVIDUALE01:05:03 00:27:36 2.970 00:09:18 1 R
22319630-34(M)59400RINAUDO MANUELINDIVIDUALE01:07:37 00:30:10 3.122 00:09:40 1 R
22419725-29(M)40272RETTORE STEFANOINDIVIDUALE01:10:10 00:32:43 3.263 00:10:01 1 -
22519835-39(M)29394ANDREOTTI GIACOMOX-MEN TEAM ITALIA01:14:00 00:36:33 3.457 00:10:34 1 -
22619940-44(M)26288MARIOLI ALESSANDROVIKING WARRIOR01:14:41 00:37:14 3.489 00:10:40 1 -
22720045-49(M)31364FOSSI SEBASTIANOASD SIRACUSA SPARTAN CREW01:15:05 00:37:38 3.508 00:10:44 1 -
22820125-29(M)41231ROSTELLO FILIPPOINDIVIDUALE01:15:32 00:38:05 3.529 00:10:47 1 -
22920225-29(M)42197BUSO MATTIAINDIVIDUALE01:21:44 00:44:17 3.792 00:11:41 1 -
23020335-39(M)30429CORNA ALEXINDIVIDUALE01:25:04 00:47:37 3.918 00:12:09 1 R
23120425-29(M)43203PIERONI MARCOOCR HUNTERS01:25:06 00:47:39 3.919 00:12:09 1 -
23220535-39(M)31352PEDRONI RICCARDOINDIVIDUALE01:25:52 00:48:25 3.947 00:12:16 1 R
23320630-34(M)60384NICHELE STEFANOOCR ACADEMY01:26:56 00:49:29 3.984 00:12:25 1 -
23420740-44(M)27347FRAU FRANCESCOINDOMITVS TEAM01:27:14 00:49:47 3.994 00:12:28 1 R
23520840-44(M)28349PETTORALI SIMONEX-MEN TEAM ITALIA01:32:35 00:55:08 4.168 00:13:14 1 -
23620940-44(M)29191RISA ROBERTOINDIVIDUALE01:34:39 00:57:12 4.230 00:13:31 1 -
23721055-60(M)2426STEFANI MARCOINDIVIDUALE01:34:40 00:57:13 4.230 00:13:31 1 -
23821145-49(M)32193GOTELLI DOMENICOREAL STEEL TEAM01:34:58 00:57:31 4.239 00:13:34 1 -
23921240-44(M)30305MIRANDOLA MARCOWHITE DONKEYS01:35:52 00:58:25 4.265 00:13:42 1 -
2402835-39(F)6105SAVORANI PATRIZIACROSSFIT FORLÌ01:35:58 00:58:31 4.268 00:13:43 1 -
24121335-39(M)32309PASINELLI DAVIDEVIKING WARRIOR01:36:49 00:59:22 4.292 00:13:50 1 -
24221435-39(M)33181BOMBONATI LUIGIINDIVIDUALE01:39:38 01:02:11 4.368 00:14:14 1 -
2432935-39(F)7120CECCATO ELISAWHITE DONKEYS01:40:26 01:02:59 4.389 00:14:21 1 -
24421535-39(M)34274IOZZI STEFANOINDIVIDUALE01:40:38 01:03:11 4.394 00:14:23 1 -
24521630-34(M)61369PIZZO SEBASTIANO ANTONIOASD SIRACUSA SPARTAN CREW01:42:06 01:04:39 4.432 00:14:35 1 -
24621750-55(M)4275CAPRETTI LEONARDOINDIVIDUALE01:43:21 01:05:54 4.463 00:14:46 1 -
2473045-49(F)1182LAVINELLI CRISTINAOCR HUNTERS01:46:35 01:09:08 4.540 00:15:14 1 -
24821845-49(M)33286FUSARI MASSIMOHAPPY RUNNER01:47:38 01:10:11 4.564 00:15:23 1 -
2493145-49(F)2133FERRARO GALLO CRISTINATEAM WRI01:51:48 01:14:21 4.655 00:15:58 1 R
2503255-60(F)1121RELLECATI EMANUELAWHITE DONKEYS01:55:02 01:17:35 4.721 00:16:26 1 -
25121945-49(M)34387SALERI GUALTIEROINDIVIDUALE01:58:10 01:20:43 4.781 00:16:53 1 -
25222018-24(M)10372ALESSANDRINI EROSOCR TEAM ITALY LWT01:01:18 00:23:51 2.723 00:08:45 0 -
25322135-39(M)35218SCHILLACI FABIOINDIVIDUALE01:04:08 00:26:41 2.912 00:09:10 0 R
25422235-39(M)36418BRUNI GIANMARIAINDIVIDUALE01:05:23 00:27:56 2.990 00:09:20 0 -
25522325-29(M)44278AVANZI NICCOLO 'TKT PARMA01:20:42 00:43:15 3.751 00:11:32 0 -
2563330-34(F)10110GALLO ALESSIAINVICTUS TEAM - SPARTAN SGX01:24:06 00:46:39 3.882 00:12:01 0 R
25722450-55(M)5344GIAVOLUCCI GIUSEPPEOCR TEAM ITALY LWT01:26:39 00:49:12 3.974 00:12:23 0 -
25822518-24(M)11323CORBETTA ANDREABIRRAETOPE01:26:48 00:49:21 3.979 00:12:24 0 -
25922640-44(M)31410CARAVELLO JAVIERG.A.U01:30:35 00:53:08 4.105 00:12:56 0 -
26022750-55(M)6216ACCARDO CARMINEINDIVIDUALE01:35:22 00:57:55 4.251 00:13:37 0 -
26122835-39(M)37345SICCARDI FRANCESCOINDIVIDUALE01:38:17 01:00:50 4.332 00:14:02 0 -
2623445-49(F)3131CORDONE CLARABEAR BROTHERS GANG01:40:18 01:02:51 4.386 00:14:20 0 -
2633535-39(F)8124PERAGLIE STEFANIAINDIVIDUALE01:41:41 01:04:14 4.421 00:14:32 0 R
2643640-44(F)4127AMATIELLO CLAUDIAASD IS CRESIAS01:43:18 01:05:51 4.462 00:14:45 0 -
2653745-49(F)4128BASCIU DANIELAASD IS CRESIAS01:43:19 01:05:52 4.462 00:14:46 0 -
26622930-34(M)62382ALESSO PAOLOINDIVIDUALE01:49:44 01:12:17 4.611 00:15:41 0 -
2673825-29(F)8139TONTI SIRIANAINDIVIDUALE01:54:54 01:17:27 4.718 00:16:25 0 -
2683930-34(F)11129DAVINI ELISAOCR TEAM IMSA01:55:11 01:17:44 4.724 00:16:27 0 -
2694040-44(F)5102GRUPPI LAURAGS ZELOFORAMAGNO01:55:38 01:18:11 4.732 00:16:31 0 -
2704130-34(F)12123BELLOMI FRANCESCAWHITE DONKEYS01:56:27 01:19:00 4.748 00:16:38 0 -
27123040-44(M)32211LERARIO ENRICOINDIVIDUALE01:58:08 01:20:41 4.780 00:16:53 0 -
2724230-34(F)13109MANDAS EMANUELAIS MOLENTIS OCR02:03:52 01:26:25 4.883 00:17:42 0 -
2734335-39(F)9137FRONZA GIULIAX-MEN TEAM ITALIA02:06:15 01:28:48 4.923 00:18:02 0 -
Righe per pagina::     TUTTE    |   30   |   50   |   100   Pagina:   | 1 | | 2 | | 3 | | 4 | | 5 | | 6 |